Time;durP1;ratioP1;P1;durP2;ratioP2;P2;SDS_P1;SDS_P2;PMS_P1;PMS_P2;Temp;Humidity;BMP_temperature;BMP_pressure;BME280_temperature;BME280_humidity;BME280_pressure;Samples;Min_cycle;Max_cycle;Signal;HPM_P1;HPM_P2
2022/05/09 00:01:32;;;;;;;21.83;20.60;;;14.80;53.80;;;;;;4996701;28;20626;-82
2022/05/09 00:03:58;;;;;;;22.73;21.53;;;14.80;53.70;;;;;;4996762;28;20193;-82
2022/05/09 00:06:24;;;;;;;23.07;21.77;;;14.90;53.60;;;;;;4996915;28;20178;-82
2022/05/09 00:08:50;;;;;;;23.33;21.90;;;14.90;53.30;;;;;;4996365;28;20919;-82
2022/05/09 00:11:16;;;;;;;25.00;23.70;;;14.90;53.70;;;;;;4996314;28;20178;-82
2022/05/09 00:13:42;;;;;;;22.97;21.67;;;14.70;54.00;;;;;;4996361;28;20771;-82
2022/05/09 00:16:07;;;;;;;21.60;20.30;;;14.70;54.80;;;;;;4995941;28;20181;-83
2022/05/09 00:18:33;;;;;;;21.20;20.00;;;14.60;55.40;;;;;;4996338;28;20450;-82
2022/05/09 00:20:59;;;;;;;22.80;21.40;;;14.70;55.60;;;;;;4995397;28;20606;-82
2022/05/09 00:23:24;;;;;;;22.27;20.90;;;14.60;55.20;;;;;;4995938;28;20181;-82
2022/05/09 00:25:50;;;;;;;22.40;21.20;;;14.70;55.50;;;;;;4996135;28;20678;-83
2022/05/09 00:28:16;;;;;;;22.43;21.23;;;14.70;54.80;;;;;;4995669;28;20246;-83
2022/05/09 00:30:42;;;;;;;22.00;20.80;;;14.60;55.40;;;;;;4995913;28;20663;-82
2022/05/09 00:33:07;;;;;;;22.60;21.10;;;14.60;55.40;;;;;;4995357;28;20420;-83
2022/05/09 00:35:33;;;;;;;22.00;20.70;;;14.60;55.40;;;;;;4995747;28;20232;-83
2022/05/09 00:37:59;;;;;;;22.23;21.03;;;14.60;55.20;;;;;;4995697;28;20235;-83
2022/05/09 00:40:24;;;;;;;24.73;23.47;;;14.50;55.60;;;;;;4996247;28;20185;-83
2022/05/09 00:42:52;;;;;;;22.43;21.10;;;14.40;55.70;;;;;;4995388;28;20524;-83
2022/05/09 00:45:21;;;;;;;20.77;19.57;;;14.40;55.70;;;;;;4995745;28;20178;-82
2022/05/09 00:47:47;;;;;;;21.80;20.50;;;14.50;55.40;;;;;;4995414;28;20483;-83
2022/05/09 00:50:18;;;;;;;20.93;19.67;;;14.40;55.80;;;;;;4995975;28;20432;-83
2022/05/09 00:53:01;;;;;;;21.53;20.23;;;14.40;56.00;;;;;;4995344;28;20783;-83
2022/05/09 00:55:47;;;;;;;21.03;19.70;;;14.30;56.30;;;;;;4995635;28;20417;-83
2022/05/09 00:58:13;;;;;;;21.30;20.10;;;14.30;56.50;;;;;;4994961;28;20431;-83
2022/05/09 01:00:41;;;;;;;21.60;20.30;;;14.20;56.90;;;;;;4994827;28;20428;-82
2022/05/09 01:03:12;;;;;;;21.30;19.97;;;14.20;57.10;;;;;;4994879;28;20476;-83
2022/05/09 01:05:39;;;;;;;20.97;19.73;;;14.20;56.70;;;;;;4995107;28;20433;-83
2022/05/09 01:08:05;;;;;;;21.33;20.13;;;14.20;56.50;;;;;;4994870;28;20880;-83
2022/05/09 01:10:34;;;;;;;21.23;19.83;;;14.10;57.20;;;;;;4995776;28;20903;-83
2022/05/09 01:13:07;;;;;;;20.33;19.13;;;14.20;57.50;;;;;;4994627;28;20424;-83
2022/05/09 01:15:33;;;;;;;21.23;20.03;;;14.20;57.80;;;;;;4994390;28;20900;-83
2022/05/09 01:18:01;;;;;;;21.03;19.83;;;14.20;57.50;;;;;;4995016;28;20444;-83
2022/05/09 01:20:27;;;;;;;23.93;22.63;;;14.20;57.50;;;;;;4994406;28;20507;-83
2022/05/09 01:22:57;;;;;;;20.50;19.40;;;14.10;57.50;;;;;;4994552;28;20975;-83
2022/05/09 01:25:23;;;;;;;21.40;20.00;;;14.10;57.60;;;;;;4994605;28;20189;-83
2022/05/09 01:27:49;;;;;;;20.43;19.30;;;14.10;58.00;;;;;;4995063;28;20464;-83
2022/05/09 01:30:18;;;;;;;24.83;23.63;;;14.10;57.60;;;;;;4994340;28;20470;-83
2022/05/09 01:32:55;;;;;;;21.23;20.00;;;14.00;57.40;;;;;;4995010;28;20983;-83
2022/05/09 01:35:45;;;;;;;22.03;20.70;;;14.10;57.40;;;;;;4994377;28;20419;-83
2022/05/09 01:38:21;;;;;;;21.67;20.27;;;14.20;57.10;;;;;;4994905;28;20432;-83
2022/05/09 01:40:47;;;;;;;25.57;24.17;;;14.10;57.80;;;;;;4994231;28;20420;-83
2022/05/09 01:43:13;;;;;;;22.63;21.03;;;14.00;57.30;;;;;;4994566;28;20767;-82
2022/05/09 01:45:38;;;;;;;21.67;20.37;;;14.00;57.80;;;;;;4994501;28;20566;-83
2022/05/09 01:50:48;;;;;;;21.83;20.33;;;13.90;58.10;;;;;;5012193;28;20184;-83
2022/05/09 01:53:15;;;;;;;21.57;20.37;;;13.90;58.60;;;;;;4994687;28;20813;-83
2022/05/09 01:55:41;;;;;;;21.73;20.40;;;13.90;58.20;;;;;;4994833;28;20212;-83
2022/05/09 01:58:06;;;;;;;20.40;19.20;;;13.80;59.00;;;;;;4995402;28;20424;-83
2022/05/09 02:00:34;;;;;;;25.43;23.80;;;13.70;59.00;;;;;;4995193;28;20422;-82
2022/05/09 02:03:00;;;;;;;21.90;20.43;;;13.70;59.30;;;;;;4994916;28;20197;-83
2022/05/09 02:05:26;;;;;;;22.03;20.73;;;13.80;59.10;;;;;;4994366;28;20424;-83
2022/05/09 02:07:53;;;;;;;21.43;20.13;;;13.70;59.30;;;;;;4994091;28;20466;-83
2022/05/09 02:10:19;;;;;;;21.70;20.10;;;13.70;59.50;;;;;;4993734;28;20428;-83
2022/05/09 02:12:45;;;;;;;20.83;19.50;;;13.60;59.30;;;;;;4994566;28;20527;-83
2022/05/09 02:15:10;;;;;;;22.50;21.07;;;13.70;59.40;;;;;;4995560;28;20496;-83
2022/05/09 02:17:37;;;;;;;22.87;21.17;;;13.70;59.00;;;;;;4994258;28;20200;-83
2022/05/09 02:20:05;;;;;;;22.07;20.70;;;13.70;58.90;;;;;;4994105;28;20272;-83
2022/05/09 02:22:31;;;;;;;21.13;19.80;;;13.60;60.10;;;;;;4994491;28;20490;-83
2022/05/09 02:24:57;;;;;;;25.03;23.63;;;13.60;59.90;;;;;;4994350;28;20841;-83
2022/05/09 02:27:23;;;;;;;21.03;19.87;;;13.60;60.00;;;;;;4994989;28;20531;-83
2022/05/09 02:29:48;;;;;;;21.77;20.47;;;13.60;59.80;;;;;;4994793;28;20188;-83
2022/05/09 02:32:16;;;;;;;21.63;20.23;;;13.50;60.30;;;;;;4979211;28;20627;-89
2022/05/09 02:34:42;;;;;;;23.60;21.80;;;13.50;59.90;;;;;;4994433;28;20424;-89
2022/05/09 02:37:08;;;;;;;20.50;19.20;;;13.50;59.40;;;;;;4994198;28;20632;-83
2022/05/09 02:39:34;;;;;;;22.47;21.00;;;13.50;60.10;;;;;;4993772;28;20412;-83
2022/05/09 02:42:00;;;;;;;22.33;20.83;;;13.50;60.10;;;;;;4993948;28;20189;-83
2022/05/09 02:44:27;;;;;;;21.30;19.90;;;13.50;60.10;;;;;;4993831;28;20916;-83
2022/05/09 02:46:53;;;;;;;23.27;21.77;;;13.50;60.40;;;;;;4992695;28;20423;-83
2022/05/09 02:49:19;;;;;;;22.97;21.20;;;13.40;60.50;;;;;;4993402;28;20219;-83
2022/05/09 02:51:46;;;;;;;22.90;21.00;;;13.40;60.80;;;;;;4993158;28;20264;-83
2022/05/09 02:54:12;;;;;;;21.70;20.40;;;13.40;60.80;;;;;;4993108;28;20424;-83
2022/05/09 02:56:38;;;;;;;21.10;19.70;;;13.30;61.10;;;;;;5011083;28;20474;-83
2022/05/09 02:59:03;;;;;;;20.50;19.20;;;13.40;61.10;;;;;;4993922;28;20177;-83
2022/05/09 03:01:29;;;;;;;25.73;24.10;;;13.30;61.60;;;;;;4993023;28;20291;-83
2022/05/09 03:06:39;;;;;;;21.97;20.33;;;13.30;62.30;;;;;;5011262;28;20239;-83
2022/05/09 03:09:04;;;;;;;21.53;20.10;;;13.30;62.00;;;;;;4992934;28;20976;-83
2022/05/09 03:11:30;;;;;;;23.07;21.37;;;13.40;61.30;;;;;;4993354;28;20173;-83
2022/05/09 03:13:56;;;;;;;20.63;19.37;;;13.40;61.00;;;;;;4994664;28;20181;-83
2022/05/09 03:16:22;;;;;;;20.37;19.17;;;13.40;60.70;;;;;;4993021;28;20433;-83
2022/05/09 03:18:48;;;;;;;22.47;20.83;;;13.40;61.00;;;;;;4993736;28;20178;-83
2022/05/09 03:21:14;;;;;;;20.63;19.33;;;13.40;61.00;;;;;;4995592;28;20982;-83
2022/05/09 03:23:39;;;;;;;21.40;20.00;;;13.30;61.40;;;;;;4997707;28;20178;-83
2022/05/09 03:26:05;;;;;;;21.73;20.30;;;13.30;61.30;;;;;;4997715;28;20173;-83
2022/05/09 03:28:31;;;;;;;20.53;19.17;;;13.30;61.50;;;;;;4997627;28;20205;-83
2022/05/09 03:30:59;;;;;;;21.57;20.17;;;13.30;62.70;;;;;;4998429;28;20192;-83
2022/05/09 03:33:27;;;;;;;23.20;21.60;;;13.30;61.80;;;;;;4998334;28;20503;-83
2022/05/09 03:35:53;;;;;;;22.17;20.67;;;13.30;62.00;;;;;;4997977;28;20422;-83
2022/05/09 03:38:19;;;;;;;21.40;20.20;;;13.20;62.10;;;;;;4997915;28;20439;-83
2022/05/09 03:40:45;;;;;;;22.10;20.70;;;13.20;62.20;;;;;;5015504;28;20837;-83
2022/05/09 03:43:12;;;;;;;21.37;20.00;;;13.20;62.10;;;;;;4997875;28;20510;-82
2022/05/09 03:45:40;;;;;;;21.70;20.30;;;13.10;62.30;;;;;;4997725;28;20182;-81
2022/05/09 03:48:06;;;;;;;21.40;19.90;;;13.10;62.00;;;;;;4997813;28;20579;-82
2022/05/09 03:50:32;;;;;;;22.00;20.57;;;13.10;62.70;;;;;;4997840;28;20413;-82
2022/05/09 03:52:57;;;;;;;21.53;20.10;;;13.10;62.50;;;;;;4997797;28;20416;-82
2022/05/09 03:55:23;;;;;;;21.13;19.83;;;13.10;62.80;;;;;;4997721;28;20276;-82
2022/05/09 03:57:51;;;;;;;21.70;20.40;;;13.10;62.60;;;;;;4997534;28;20272;-82
2022/05/09 04:00:20;;;;;;;23.50;21.90;;;13.00;63.90;;;;;;4996037;28;20672;-82
2022/05/09 04:02:46;;;;;;;20.70;19.37;;;13.00;63.80;;;;;;4994413;28;20575;-81
2022/05/09 04:05:16;;;;;;;22.03;20.47;;;13.10;63.20;;;;;;4995068;28;20425;-82
2022/05/09 04:07:51;;;;;;;22.90;21.10;;;13.10;62.80;;;;;;4994626;28;20471;-82
2022/05/09 04:10:20;;;;;;;22.93;21.53;;;13.10;62.70;;;;;;4993900;28;20412;-81
2022/05/09 04:12:46;;;;;;;25.07;23.37;;;13.00;63.10;;;;;;4993558;28;20421;-82
2022/05/09 04:17:56;;;;;;;24.40;23.00;;;13.00;63.40;;;;;;5016271;28;20919;-81
2022/05/09 04:20:23;;;;;;;21.87;20.33;;;13.00;63.90;;;;;;4996846;28;20408;-90
2022/05/09 04:22:51;;;;;;;21.67;20.27;;;12.90;63.80;;;;;;4997972;28;20886;-86
2022/05/09 04:25:19;;;;;;;21.80;20.37;;;12.90;63.80;;;;;;4997647;28;20507;-81
2022/05/09 04:27:45;;;;;;;22.67;20.77;;;12.90;64.00;;;;;;4996166;28;20458;-82
2022/05/09 04:30:11;;;;;;;22.40;20.87;;;12.90;64.40;;;;;;4996180;28;20506;-81
2022/05/09 04:32:37;;;;;;;21.20;19.60;;;13.00;64.00;;;;;;4997322;28;20416;-83
2022/05/09 04:35:04;;;;;;;21.10;19.80;;;12.90;63.90;;;;;;4997621;28;20780;-81
2022/05/09 04:37:29;;;;;;;21.20;19.87;;;13.00;63.90;;;;;;4996661;28;20429;-83
2022/05/09 04:39:55;;;;;;;21.60;20.23;;;12.90;63.80;;;;;;4996888;28;20974;-83
2022/05/09 04:42:21;;;;;;;21.37;19.93;;;12.90;64.10;;;;;;4996818;28;20177;-82
2022/05/09 04:44:46;;;;;;;21.67;20.27;;;12.90;64.60;;;;;;4996461;28;20181;-83
2022/05/09 04:47:13;;;;;;;26.90;25.30;;;13.00;64.20;;;;;;4996424;28;20412;-82
2022/05/09 04:49:39;;;;;;;24.03;22.27;;;13.00;63.90;;;;;;4996417;28;20200;-83
2022/05/09 04:52:05;;;;;;;22.40;20.80;;;13.00;64.20;;;;;;4996646;28;20499;-83
2022/05/09 04:54:31;;;;;;;20.30;19.10;;;12.90;64.60;;;;;;4996277;28;20512;-82
2022/05/09 04:56:57;;;;;;;20.27;19.07;;;13.00;64.50;;;;;;4996618;28;20507;-82
2022/05/09 04:59:22;;;;;;;22.17;20.77;;;13.00;64.10;;;;;;4996428;28;20177;-82
2022/05/09 05:01:49;;;;;;;21.60;20.30;;;13.00;64.30;;;;;;4995370;28;20609;-83
2022/05/09 05:04:17;;;;;;;20.77;19.37;;;13.10;64.00;;;;;;4995044;28;20776;-82
2022/05/09 05:06:43;;;;;;;22.20;20.90;;;13.10;64.00;;;;;;4995750;28;20507;-82
2022/05/09 05:09:09;;;;;;;22.60;20.93;;;13.20;64.10;;;;;;4995216;28;20471;-82
2022/05/09 05:11:35;;;;;;;23.53;22.10;;;13.20;62.80;;;;;;4996004;28;20851;-88
2022/05/09 05:14:00;;;;;;;23.97;22.27;;;13.10;62.60;;;;;;4997373;28;20169;-89
2022/05/09 05:16:59;;;;;;;22.83;21.47;;;13.20;63.30;;;;;;4996641;28;20472;-88
2022/05/09 05:19:12;;;;;;;22.57;20.97;;;13.20;63.50;;;;;;5014059;28;20183;-89
2022/05/09 05:21:37;;;;;;;24.37;22.43;;;13.30;64.10;;;;;;4996529;28;20519;-89
2022/05/09 05:24:03;;;;;;;24.97;23.17;;;13.40;63.50;;;;;;4996683;28;20181;-89
2022/05/09 05:26:29;;;;;;;24.00;22.40;;;13.40;63.30;;;;;;4996434;28;20228;-89
2022/05/09 05:28:54;;;;;;;24.30;22.70;;;13.30;62.40;;;;;;4996577;28;20213;-89
2022/05/09 05:31:20;;;;;;;23.63;22.17;;;13.40;62.70;;;;;;4996500;28;20180;-89
2022/05/09 05:33:46;;;;;;;24.27;22.57;;;13.50;63.10;;;;;;4996496;28;20177;-89
2022/05/09 05:36:14;;;;;;;25.30;23.17;;;13.50;62.10;;;;;;4996562;28;20184;-90
2022/05/09 05:38:39;;;;;;;23.73;21.90;;;13.50;62.00;;;;;;4996072;28;20775;-89
2022/05/09 05:41:05;;;;;;;23.20;21.70;;;13.60;62.30;;;;;;4996256;28;20439;-90
2022/05/09 05:43:31;;;;;;;24.67;22.77;;;13.60;61.10;;;;;;4995841;28;20183;-90
2022/05/09 05:45:57;;;;;;;24.33;22.67;;;13.70;61.90;;;;;;4995350;28;20185;-89
2022/05/09 05:48:24;;;;;;;22.93;21.40;;;13.70;61.90;;;;;;4996117;28;20209;-89
2022/05/09 05:50:52;;;;;;;24.07;22.37;;;13.80;60.80;;;;;;4996357;28;20420;-90
2022/05/09 05:53:18;;;;;;;28.70;26.73;;;13.80;61.10;;;;;;4996228;28;20420;-90
2022/05/09 05:55:44;;;;;;;25.77;23.80;;;13.90;60.70;;;;;;4996155;28;20542;-90
2022/05/09 05:58:10;;;;;;;24.73;23.13;;;13.90;60.10;;;;;;4996519;28;20420;-90
2022/05/09 06:00:36;;;;;;;25.33;23.83;;;14.00;60.30;;;;;;4995195;28;20228;-93
2022/05/09 06:03:02;;;;;;;26.03;23.73;;;14.00;60.70;;;;;;4995236;28;20612;-90
2022/05/09 06:05:28;;;;;;;28.40;26.90;;;14.10;59.80;;;;;;4995745;28;20421;-90
2022/05/09 06:07:55;;;;;;;25.70;24.07;;;14.10;60.00;;;;;;4995166;28;20830;-91
2022/05/09 06:10:22;;;;;;;24.67;23.30;;;14.10;59.60;;;;;;4995883;28;20173;-91
2022/05/09 06:12:48;;;;;;;26.10;24.20;;;14.30;59.40;;;;;;4992761;28;20770;-84
2022/05/09 06:15:28;;;;;;;24.07;22.57;;;14.30;59.50;;;;;;4988818;28;20988;-83
2022/05/09 06:17:56;;;;;;;24.37;22.87;;;14.30;60.10;;;;;;4975176;28;20540;-84
2022/05/09 06:20:22;;;;;;;25.17;23.67;;;14.40;59.40;;;;;;4975504;28;20417;-83
2022/05/09 06:22:49;;;;;;;26.37;24.40;;;14.40;58.50;;;;;;4975047;28;20944;-83
2022/05/09 06:25:17;;;;;;;26.73;25.07;;;14.50;57.40;;;;;;4975257;28;20937;-83
2022/05/09 06:27:43;;;;;;;26.53;24.83;;;14.50;57.10;;;;;;4977755;28;20464;-83
2022/05/09 06:30:12;;;;;;;26.60;25.07;;;14.60;57.60;;;;;;4994215;28;20412;-83
2022/05/09 06:32:38;;;;;;;25.47;23.87;;;14.70;57.20;;;;;;4994218;28;20181;-83
2022/05/09 06:35:07;;;;;;;25.80;24.23;;;14.70;57.40;;;;;;5003840;28;20417;-83
2022/05/09 06:37:33;;;;;;;25.87;24.37;;;14.70;56.80;;;;;;5010752;28;20783;-83
2022/05/09 06:40:00;;;;;;;27.57;25.90;;;14.80;56.30;;;;;;5011011;28;20412;-83
2022/05/09 06:42:27;;;;;;;26.77;25.27;;;15.00;55.80;;;;;;5010813;28;20428;-82
2022/05/09 06:44:53;;;;;;;27.27;25.77;;;15.00;55.40;;;;;;5010347;28;20511;-82
2022/05/09 06:47:19;;;;;;;27.53;25.73;;;15.10;55.90;;;;;;4999269;28;20456;-82
2022/05/09 06:49:45;;;;;;;26.00;24.47;;;15.10;56.50;;;;;;4994491;28;20502;-82
2022/05/09 06:52:11;;;;;;;27.77;26.05;;;15.20;55.00;;;;;;4993251;28;20410;-82
2022/05/09 06:54:36;;;;;;;29.27;26.80;;;15.20;54.50;;;;;;4994336;28;20177;-82
2022/05/09 06:57:02;;;;;;;26.30;24.87;;;15.30;54.60;;;;;;4997939;28;20177;-82
2022/05/09 06:59:31;;;;;;;26.90;25.40;;;15.30;55.40;;;;;;4997873;28;20181;-82
2022/05/09 07:01:57;;;;;;;25.07;23.67;;;15.40;55.60;;;;;;4998318;28;20417;-80
2022/05/09 07:04:23;;;;;;;26.80;25.23;;;15.40;53.80;;;;;;4998349;28;20789;-81
2022/05/09 07:06:49;;;;;;;29.13;26.30;;;15.40;54.60;;;;;;4998117;28;20615;-81
2022/05/09 07:09:15;;;;;;;27.20;25.70;;;15.50;54.40;;;;;;4998286;28;20459;-81
2022/05/09 07:11:42;;;;;;;25.23;23.83;;;15.50;51.60;;;;;;4998333;28;20173;-81
2022/05/09 07:14:09;;;;;;;26.20;24.70;;;15.50;51.90;;;;;;4997728;28;20523;-82
2022/05/09 07:16:35;;;;;;;28.20;26.60;;;15.60;52.90;;;;;;4997832;28;20482;-82
2022/05/09 07:19:01;;;;;;;29.37;27.23;;;15.60;51.00;;;;;;4998089;28;20424;-82
2022/05/09 07:21:27;;;;;;;27.73;26.13;;;15.60;50.80;;;;;;4998028;28;20481;-82
2022/05/09 07:23:53;;;;;;;26.80;25.30;;;15.70;49.90;;;;;;4998393;28;20284;-89
2022/05/09 07:26:19;;;;;;;27.83;25.50;;;15.80;50.20;;;;;;4999005;28;20503;-83
2022/05/09 07:28:44;;;;;;;25.93;24.53;;;15.80;50.50;;;;;;4998152;28;20235;-82
2022/05/09 07:31:10;;;;;;;24.43;23.20;;;15.90;50.90;;;;;;5016320;28;20173;-82
2022/05/09 07:33:36;;;;;;;25.20;23.63;;;15.90;52.30;;;;;;4997812;28;20173;-82
2022/05/09 07:36:03;;;;;;;27.27;25.57;;;16.00;51.40;;;;;;4996845;28;20433;-82
2022/05/09 07:38:28;;;;;;;28.87;27.17;;;16.00;49.70;;;;;;4997455;28;20666;-81
2022/05/09 07:40:54;;;;;;;27.57;25.97;;;16.00;50.40;;;;;;4997374;28;20440;-82
2022/05/09 07:43:23;;;;;;;27.30;25.63;;;16.10;50.30;;;;;;4997086;28;20192;-82
2022/05/09 07:45:51;;;;;;;28.40;26.93;;;16.20;50.50;;;;;;5011089;28;20180;-82
2022/05/09 07:48:21;;;;;;;29.40;27.47;;;16.30;50.00;;;;;;4997746;28;20554;-82
2022/05/09 07:50:48;;;;;;;26.77;25.13;;;16.30;49.80;;;;;;4997757;28;20933;-82
2022/05/09 07:53:30;;;;;;;26.17;24.67;;;16.40;49.20;;;;;;4997814;28;20428;-82
2022/05/09 07:55:56;;;;;;;26.83;25.23;;;16.40;49.90;;;;;;4997588;28;21052;-82
2022/05/09 07:58:22;;;;;;;28.40;27.00;;;16.50;50.00;;;;;;4997464;28;20517;-82
2022/05/09 08:00:48;;;;;;;28.00;26.40;;;16.50;48.60;;;;;;4996145;28;20534;-81
2022/05/09 08:03:17;;;;;;;26.87;25.27;;;16.60;48.80;;;;;;4997584;28;20178;-81
2022/05/09 08:05:43;;;;;;;28.53;26.83;;;16.70;48.70;;;;;;4996770;28;20421;-82
2022/05/09 08:08:10;;;;;;;28.23;26.53;;;16.70;47.50;;;;;;4996133;28;20463;-80
2022/05/09 08:10:36;;;;;;;28.00;26.43;;;16.80;47.60;;;;;;4997004;28;20417;-81
2022/05/09 08:13:04;;;;;;;28.20;26.60;;;16.80;49.00;;;;;;4996888;28;20833;-81
2022/05/09 08:15:31;;;;;;;26.80;25.27;;;17.00;47.40;;;;;;4996721;28;20482;-82
2022/05/09 08:17:58;;;;;;;28.07;26.27;;;16.90;47.70;;;;;;4996796;28;20804;-82
2022/05/09 08:20:24;;;;;;;26.97;25.67;;;17.00;48.10;;;;;;4996837;28;20925;-82
2022/05/09 08:22:59;;;;;;;28.20;26.60;;;17.10;47.10;;;;;;4996736;28;20427;-81
2022/05/09 08:25:25;;;;;;;27.50;25.90;;;17.20;46.80;;;;;;4996777;28;20416;-82
2022/05/09 08:27:51;;;;;;;27.70;26.30;;;17.20;45.90;;;;;;4996455;28;21002;-82
2022/05/09 08:30:18;;;;;;;27.17;25.67;;;17.30;45.70;;;;;;4997047;28;20887;-82
2022/05/09 08:32:44;;;;;;;27.10;25.60;;;17.40;45.30;;;;;;4996595;28;20174;-82
2022/05/09 08:35:10;;;;;;;26.20;24.90;;;17.60;44.60;;;;;;4996379;28;20431;-82
2022/05/09 08:37:36;;;;;;;30.07;28.10;;;17.60;44.70;;;;;;4996558;28;20818;-83
2022/05/09 08:40:04;;;;;;;26.83;25.43;;;17.70;44.50;;;;;;4996649;28;20474;-83
2022/05/09 08:42:51;;;;;;;27.47;25.53;;;17.80;43.10;;;;;;4996220;28;20178;-82
2022/05/09 08:45:48;;;;;;;29.20;27.30;;;17.70;43.60;;;;;;5014152;28;20416;-82
2022/05/09 08:48:35;;;;;;;28.23;26.53;;;17.70;44.30;;;;;;4981003;28;20824;-81
2022/05/09 08:51:07;;;;;;;28.50;27.00;;;17.80;44.70;;;;;;4996234;28;20417;-83
2022/05/09 08:53:40;;;;;;;28.17;26.77;;;17.90;43.60;;;;;;4996263;28;20507;-83
2022/05/09 08:56:11;;;;;;;27.80;26.23;;;18.00;43.20;;;;;;4996158;28;20416;-83
2022/05/09 08:58:46;;;;;;;28.77;27.17;;;18.00;43.70;;;;;;4995953;28;20428;-81
2022/05/09 09:01:22;;;;;;;29.10;26.80;;;18.00;42.70;;;;;;5013755;28;20418;-81
2022/05/09 09:04:01;;;;;;;28.03;26.23;;;18.20;42.70;;;;;;4995804;28;20824;-82
2022/05/09 09:07:02;;;;;;;28.20;26.80;;;18.10;42.40;;;;;;4996373;28;20416;-82
2022/05/09 09:09:33;;;;;;;30.10;28.50;;;18.20;42.70;;;;;;4996403;28;20888;-82
2022/05/09 09:12:10;;;;;;;29.07;27.57;;;18.30;42.90;;;;;;4995600;28;20420;-82
2022/05/09 09:14:47;;;;;;;28.83;27.40;;;18.40;41.30;;;;;;4996215;28;20426;-81
2022/05/09 09:17:25;;;;;;;31.10;29.40;;;18.50;42.40;;;;;;4996835;28;20444;-82
2022/05/09 09:20:11;;;;;;;31.30;29.60;;;18.60;41.00;;;;;;4997281;28;20788;-82
2022/05/09 09:22:52;;;;;;;29.90;28.30;;;18.80;40.70;;;;;;4997564;28;20900;-83
2022/05/09 09:25:26;;;;;;;29.07;27.67;;;18.80;39.60;;;;;;5014633;28;20571;-82
2022/05/09 09:28:06;;;;;;;30.10;28.57;;;19.00;39.40;;;;;;4996707;28;20830;-86
2022/05/09 09:30:33;;;;;;;30.37;28.67;;;19.10;40.20;;;;;;4995970;28;20423;-89
2022/05/09 09:33:03;;;;;;;30.10;28.70;;;19.20;39.60;;;;;;4995916;28;20417;-88
2022/05/09 09:35:36;;;;;;;29.73;28.13;;;19.20;39.20;;;;;;4995345;28;20481;-84
2022/05/09 09:38:42;;;;;;;30.23;28.40;;;19.30;39.40;;;;;;4995612;28;20416;-88
2022/05/09 09:41:23;;;;;;;28.20;26.90;;;19.40;38.50;;;;;;4975715;28;20764;-87
2022/05/09 09:44:01;;;;;;;28.63;27.20;;;19.40;38.50;;;;;;4990167;28;20447;-88
2022/05/09 09:46:26;;;;;;;29.93;28.53;;;19.50;38.60;;;;;;4995179;28;20506;-87
2022/05/09 09:49:07;;;;;;;28.43;26.93;;;19.70;38.80;;;;;;5012589;28;20547;-87
2022/05/09 09:51:45;;;;;;;29.47;27.77;;;19.80;37.90;;;;;;4995136;28;20195;-88
2022/05/09 09:54:12;;;;;;;28.70;27.40;;;19.70;37.30;;;;;;5006245;28;20448;-88
2022/05/09 09:56:38;;;;;;;29.93;28.40;;;19.70;38.20;;;;;;4995333;28;20417;-87
2022/05/09 09:59:13;;;;;;;28.70;27.30;;;19.70;37.90;;;;;;4995127;28;20759;-87
2022/05/09 10:01:40;;;;;;;29.30;27.80;;;19.80;37.60;;;;;;4995097;28;20505;-87
2022/05/09 10:04:24;;;;;;;29.77;28.17;;;19.90;37.20;;;;;;4995110;28;20420;-87
2022/05/09 10:07:07;;;;;;;27.47;26.17;;;20.00;36.60;;;;;;4995353;28;20779;-87
2022/05/09 10:09:43;;;;;;;27.00;25.70;;;20.00;37.30;;;;;;4995672;28;20459;-87
2022/05/09 10:12:23;;;;;;;26.63;25.33;;;19.90;36.40;;;;;;4995472;28;20409;-87
2022/05/09 10:14:50;;;;;;;28.27;26.77;;;19.80;36.80;;;;;;4995244;28;20459;-87
2022/05/09 10:17:21;;;;;;;28.43;27.00;;;19.70;37.10;;;;;;4995126;28;20437;-88
2022/05/09 10:19:48;;;;;;;29.13;27.63;;;19.70;36.60;;;;;;4995165;28;20760;-87
2022/05/09 10:25:13;;;;;;;25.53;24.43;;;20.00;35.80;;;;;;5012194;28;20439;-88
2022/05/09 10:27:40;;;;;;;27.83;26.53;;;20.30;33.90;;;;;;5012400;28;20865;-87
2022/05/09 10:30:09;;;;;;;26.70;25.50;;;20.60;33.50;;;;;;5002965;28;20424;-88
2022/05/09 10:32:55;;;;;;;25.87;24.50;;;20.80;31.40;;;;;;4996598;28;20468;-86
2022/05/09 10:35:25;;;;;;;26.10;24.90;;;20.90;30.70;;;;;;4995344;28;20508;-86
2022/05/09 10:38:12;;;;;;;26.23;25.00;;;20.90;32.40;;;;;;4995312;28;20554;-86
2022/05/09 10:40:54;;;;;;;26.53;25.23;;;21.00;30.70;;;;;;4995213;28;20420;-85
2022/05/09 10:43:31;;;;;;;25.87;24.73;;;21.10;31.80;;;;;;4995607;28;20463;-83
2022/05/09 10:45:58;;;;;;;26.07;24.77;;;21.40;31.60;;;;;;4995669;28;20481;-87
2022/05/09 10:48:34;;;;;;;26.07;24.87;;;21.50;30.30;;;;;;4995368;28;20459;-87
2022/05/09 10:51:12;;;;;;;27.37;25.97;;;21.60;30.20;;;;;;4995330;28;20423;-88
2022/05/09 10:54:24;;;;;;;26.20;25.00;;;21.80;30.00;;;;;;4995221;28;20416;-87
2022/05/09 10:56:59;;;;;;;25.80;24.60;;;21.80;29.50;;;;;;4924292;28;20421;-87
2022/05/09 10:59:27;;;;;;;27.47;26.13;;;21.90;28.80;;;;;;4975537;28;20475;-88
2022/05/09 11:02:01;;;;;;;26.03;24.93;;;22.10;28.90;;;;;;4974906;28;20433;-87
2022/05/09 11:04:32;;;;;;;26.60;25.20;;;22.10;28.00;;;;;;4987180;28;20452;-85
2022/05/09 11:07:18;;;;;;;25.13;24.03;;;22.10;28.20;;;;;;4994718;28;20944;-87
2022/05/09 11:09:47;;;;;;;24.77;23.67;;;22.30;27.40;;;;;;4994097;28;20511;-87
2022/05/09 11:12:37;;;;;;;25.03;23.83;;;22.30;27.70;;;;;;4994710;28;20417;-87
2022/05/09 11:15:32;;;;;;;26.30;25.00;;;22.20;29.10;;;;;;4994449;28;20771;-87
2022/05/09 11:18:21;;;;;;;26.77;25.57;;;22.20;29.60;;;;;;4993220;28;20436;-87
2022/05/09 11:21:04;;;;;;;26.50;25.20;;;22.20;29.70;;;;;;4994637;28;20421;-88
2022/05/09 11:23:50;;;;;;;24.93;23.90;;;22.30;29.60;;;;;;4994443;28;20424;-88
2022/05/09 11:26:43;;;;;;;25.73;24.63;;;22.30;28.90;;;;;;4994270;28;20924;-88
2022/05/09 11:29:48;;;;;;;24.43;23.20;;;22.30;29.20;;;;;;5011678;28;20558;-88
2022/05/09 11:32:23;;;;;;;23.53;22.40;;;22.10;28.50;;;;;;4989944;28;20420;-87
2022/05/09 11:35:07;;;;;;;24.97;23.80;;;22.00;28.70;;;;;;4989650;28;20419;-88
2022/05/09 11:37:58;;;;;;;23.77;22.67;;;21.90;28.70;;;;;;4992858;28;20416;-85
2022/05/09 11:40:38;;;;;;;23.40;22.40;;;21.90;28.20;;;;;;4994261;28;20412;-83
2022/05/09 11:43:40;;;;;;;22.93;21.70;;;21.90;28.10;;;;;;4997494;28;20805;-84
2022/05/09 11:46:12;;;;;;;23.10;22.10;;;21.80;27.90;;;;;;4997620;28;20961;-86
2022/05/09 11:49:01;;;;;;;26.43;24.43;;;21.90;28.20;;;;;;4997665;28;20544;-83
2022/05/09 11:51:51;;;;;;;24.10;22.53;;;21.90;28.40;;;;;;4997709;28;20450;-83
2022/05/09 11:54:29;;;;;;;30.60;27.30;;;21.90;29.10;;;;;;4997533;28;20451;-83
2022/05/09 11:56:59;;;;;;;24.40;23.17;;;21.80;28.10;;;;;;4997818;28;20431;-85
2022/05/09 11:59:27;;;;;;;26.93;25.10;;;21.90;28.40;;;;;;4997750;28;20508;-83
2022/05/09 12:02:03;;;;;;;25.10;23.70;;;21.90;26.70;;;;;;4997139;28;20432;-80
2022/05/09 12:04:48;;;;;;;24.70;23.40;;;22.10;27.60;;;;;;4997622;28;20825;-85
2022/05/09 12:07:26;;;;;;;23.80;22.80;;;22.30;27.20;;;;;;4997334;28;20431;-85
2022/05/09 12:10:00;;;;;;;26.20;24.80;;;22.40;26.80;;;;;;4994438;28;20494;-85
2022/05/09 12:12:41;;;;;;;25.30;24.20;;;22.60;27.00;;;;;;4997144;28;20434;-85
2022/05/09 12:15:16;;;;;;;24.77;23.67;;;22.60;27.00;;;;;;4997272;28;20416;-84
2022/05/09 12:17:43;;;;;;;27.57;26.17;;;22.80;26.80;;;;;;4997120;28;20490;-82
2022/05/09 12:20:38;;;;;;;26.25;24.95;;;22.90;26.20;;;;;;4996686;28;20423;-84
2022/05/09 12:23:09;;;;;;;25.83;24.53;;;23.10;25.30;;;;;;4944990;28;20285;-84
2022/05/09 12:25:41;;;;;;;24.17;23.17;;;23.30;25.60;;;;;;4977942;28;20417;-83
2022/05/09 12:28:16;;;;;;;25.10;23.90;;;23.40;25.00;;;;;;4978163;28;20992;-82
2022/05/09 12:30:47;;;;;;;24.47;23.47;;;23.40;24.00;;;;;;4979553;28;20428;-84
2022/05/09 12:33:36;;;;;;;24.07;22.97;;;23.30;24.80;;;;;;4997717;28;20413;-84
2022/05/09 12:36:32;;;;;;;23.00;22.00;;;23.10;26.20;;;;;;4997067;28;20700;-85
2022/05/09 12:39:02;;;;;;;23.10;22.00;;;22.90;25.30;;;;;;4998309;28;20553;-83
2022/05/09 12:41:45;;;;;;;23.93;22.93;;;22.80;25.80;;;;;;4997129;28;20416;-83
2022/05/09 12:44:22;;;;;;;23.07;21.97;;;22.70;25.00;;;;;;4984912;28;20440;-83
2022/05/09 12:46:53;;;;;;;21.80;20.70;;;22.60;26.10;;;;;;4987683;28;20468;-82
2022/05/09 12:49:27;;;;;;;22.43;21.40;;;22.60;24.70;;;;;;4996265;28;20801;-81
2022/05/09 12:51:56;;;;;;;22.73;21.63;;;22.40;26.30;;;;;;5014583;28;20407;-83
2022/05/09 12:54:28;;;;;;;23.90;22.80;;;22.50;25.80;;;;;;4995338;28;20412;-84
2022/05/09 12:56:56;;;;;;;24.43;23.23;;;22.70;25.70;;;;;;4993529;28;20417;-83